Airfield :
LOGIN :

Register | Disclaimer

   EN    FR    IT 

 










Legend :    VFR   Marginal VFR   IFR   Intensive IFR   Very Intensive IFR
Visi :
Ceiling :
>= 8 km
>= 3000ft
5 to 8 km
1000 to 3000 ft
1500m to 5 km
500 to 1000 ft
800 to 1500m
200 to 500 ft
< 800m
< 200 ft
Symbols :   Thunderstorms  Fog  Heavy snow  Heavy precipitations  Wind > 20 kt
SIGMETs :     Misc.  Thunderstorms  Icing  Turbulence  Mountain Waves  Volcanic Ashes







- Airport Elevation : 1822 ft


ETSL - Lechfeld AB

CURRENT METAR :
  • 132120Z 06009KT 9999 BKN010 M03/M05 Q1014 GRN

EXPIRED METARs :
  • 132020Z 09006KT 9999 BKN012 M02/M05 Q1014 GRN
  • 131920Z 08010KT 9999 BKN012 M02/M05 Q1014 GRN

TAF TAF ETSL
Valid from the 13 at 15:00 until the 14 at 00:00 UTC


131425Z 1315/1324 05010KT 9999 NSW BKN008 BKN015
BECMG 1317/1319 07008KT 7000 NSW BKN005 OVC012
TEMPO 1322/1324 07005KT 2000 BR OVC002 CANCEL 1630Z/BY ETGL
No reported NOTAMs for that airfield.



MET'MAP, your aeronautical weather chart ! - Copyright ORBIFLY December 2007 - Disclaimer

ORBIFLY MET'MAP TEAM :

Programming & Development : Alexandra Zaïnal
Concept & Development : Baudouin d'Aumeries
Co-Development & Prog : Marc-Olivier Méhu
Technical & hardware support : Manuel Goepfert

Contact : metmap@orbifly.com




SOURCES & CREDITS :

   NOAA